Mayhew, Mississippi
Current Conditions -  °F | °C
As of 4:45 PM on Monday 24 Nov 2014 (Local Time) from KGTR Reporting Station
Clear Clear  
Wind Chill: 13°   Ceiling: Unl
Heat Index: 13°   Visibility: 10mi
Dew Point:   Wind: 6mph
Humidity: 47%   Direction: 300°WNW
Pressure: 29.96"   Gusts: NA
Location:  33.49°N, 88.63°W
Report Text: KGTR 242245Z 30005KT 10SM SKC 13/02 A2996
Loading
Personal Weather Stations






























Interactive Weather Map New forecast layout! Learn more

10-Day Weather Forecast

Advertisements
Track Severe Weather on mobile